createdAt,value
2022-09-22T00:01:31.655Z,98594.59
2022-09-22T00:04:03.802Z,98601.34
2022-09-22T00:06:37.362Z,98599.13
2022-09-22T00:09:07.221Z,98606.81
2022-09-22T00:11:47.544Z,98600.56
2022-09-22T00:14:25.445Z,98604.75
2022-09-22T00:17:03.582Z,98605.03
2022-09-22T00:19:37.614Z,98599.75
2022-09-22T00:22:06.354Z,98598.63
2022-09-22T00:24:34.989Z,98615.41
2022-09-22T00:27:02.300Z,98608.16
2022-09-22T00:29:30.820Z,98612.53
2022-09-22T00:32:00.370Z,98611.41
2022-09-22T00:34:31.023Z,98609.38
2022-09-22T00:36:58.473Z,98605.34
2022-09-22T00:39:27.331Z,98601.06
2022-09-22T00:41:54.542Z,98604.25
2022-09-22T00:44:21.823Z,98606.75
2022-09-22T00:46:58.101Z,98608.63
2022-09-22T00:49:43.513Z,98604.16
2022-09-22T00:52:17.108Z,98601.25
2022-09-22T00:54:44.658Z,98599.47
2022-09-22T00:57:22.638Z,98599.69
2022-09-22T00:59:52.833Z,98588.59
2022-09-22T01:02:21.209Z,98599.41
2022-09-22T01:04:52.160Z,98593.22
2022-09-22T01:07:28.997Z,98593.13
2022-09-22T01:09:58.100Z,98591.38
2022-09-22T01:12:28.418Z,98592.03
2022-09-22T01:15:25.003Z,98593.81
2022-09-22T01:18:14.155Z,98601.25
2022-09-22T01:21:11.353Z,98598.28
2022-09-22T01:24:32.446Z,98597.34
2022-09-22T01:27:43.035Z,98590.81
2022-09-22T01:30:20.050Z,98595.94
2022-09-22T01:33:24.681Z,98598.28
2022-09-22T01:36:08.447Z,98595.75
2022-09-22T01:38:50.929Z,98593.06
2022-09-22T01:41:48.256Z,98596.59
2022-09-22T01:44:25.374Z,98592.97
2022-09-22T01:47:17.921Z,98597.63
2022-09-22T01:49:55.204Z,98594.47
2022-09-22T01:52:36.295Z,98590.81
2022-09-22T01:55:16.349Z,98589.69
2022-09-22T01:57:56.822Z,98589.56
2022-09-22T02:00:24.695Z,98589.97
2022-09-22T02:03:06.746Z,98582.03
2022-09-22T02:05:42.962Z,98587.25
2022-09-22T02:08:18.286Z,98574.41
2022-09-22T02:10:48.662Z,98579.63
2022-09-22T02:13:16.069Z,98585.00
2022-09-22T02:16:02.021Z,98577.00
2022-09-22T02:19:19.188Z,98567.78
2022-09-22T02:21:48.540Z,98567.94
2022-09-22T02:24:39.433Z,98569.25
2022-09-22T02:27:36.442Z,98580.53
2022-09-22T02:30:12.100Z,98570.19
2022-09-22T02:32:46.300Z,98587.25
2022-09-22T02:35:14.586Z,98580.69
2022-09-22T02:37:54.835Z,98585.94
2022-09-22T02:40:25.039Z,98578.66
2022-09-22T02:43:22.031Z,98589.94
2022-09-22T02:46:11.114Z,98583.78
2022-09-22T02:48:54.116Z,98583.66
2022-09-22T02:51:22.341Z,98580.88
2022-09-22T02:53:49.459Z,98587.78
2022-09-22T02:56:16.790Z,98586.75
2022-09-22T02:58:44.124Z,98580.91
2022-09-22T03:01:11.356Z,98587.81
2022-09-22T03:03:38.598Z,98578.19
2022-09-22T03:06:06.248Z,98586.97
2022-09-22T03:08:33.430Z,98588.00
2022-09-22T03:11:00.581Z,98585.28
2022-09-22T03:13:29.226Z,98594.69
2022-09-22T03:15:56.583Z,98590.88
2022-09-22T03:18:23.842Z,98585.75
2022-09-22T03:20:51.275Z,98581.91
2022-09-22T03:23:18.508Z,98581.91
2022-09-22T03:25:45.724Z,98581.06
2022-09-22T03:28:13.072Z,98592.44
2022-09-22T03:30:40.609Z,98589.94
2022-09-22T03:33:07.880Z,98594.44
2022-09-22T03:35:35.491Z,98596.22
2022-09-22T03:38:02.742Z,98601.59
2022-09-22T03:40:30.027Z,98597.31
2022-09-22T03:42:57.529Z,98602.66
2022-09-22T03:45:25.096Z,98602.53
2022-09-22T03:47:53.394Z,98598.44
2022-09-22T03:50:22.610Z,98594.72
2022-09-22T03:52:50.126Z,98595.84
2022-09-22T03:55:17.580Z,98595.84
2022-09-22T03:57:45.379Z,98596.88
2022-09-22T04:00:14.239Z,98587.16
2022-09-22T04:02:41.787Z,98588.84
2022-09-22T04:05:10.491Z,98589.50
2022-09-22T04:07:37.913Z,98588.84
2022-09-22T04:10:05.888Z,98592.28
2022-09-22T04:12:33.554Z,98584.56
2022-09-22T04:15:00.716Z,98594.72
2022-09-22T04:17:27.973Z,98591.91
2022-09-22T04:19:55.459Z,98601.53
2022-09-22T04:22:22.876Z,98589.41
2022-09-22T04:24:50.090Z,98592.03
2022-09-22T04:27:20.579Z,98592.50
2022-09-22T04:29:49.144Z,98593.31
2022-09-22T04:32:18.502Z,98589.78
2022-09-22T04:34:46.186Z,98585.59
2022-09-22T04:37:13.759Z,98600.13
2022-09-22T04:39:41.474Z,98594.72
2022-09-22T04:42:09.234Z,98595.84
2022-09-22T04:44:36.668Z,98600.13
2022-09-22T04:47:04.912Z,98603.31
2022-09-22T04:49:32.408Z,98601.34
2022-09-22T04:51:59.648Z,98606.47
2022-09-22T04:54:26.950Z,98606.09
2022-09-22T04:56:54.382Z,98607.59
2022-09-22T04:59:21.837Z,98606.56
2022-09-22T05:01:49.286Z,98604.59
2022-09-22T05:04:16.858Z,98598.34
2022-09-22T05:06:44.066Z,98600.38
2022-09-22T05:09:11.309Z,98592.97
2022-09-22T05:11:39.603Z,98599.38
2022-09-22T05:14:06.784Z,98602.22
2022-09-22T05:16:34.154Z,98605.88
2022-09-22T05:19:01.676Z,98605.88
2022-09-22T05:21:28.992Z,98602.09
2022-09-22T05:23:56.189Z,98617.91
2022-09-22T05:26:23.589Z,98616.84
2022-09-22T05:28:51.668Z,98609.56
2022-09-22T05:31:19.639Z,98604.69
2022-09-22T05:33:47.164Z,98608.56
2022-09-22T05:36:14.675Z,98615.09
2022-09-22T05:38:42.314Z,98611.94
2022-09-22T05:41:10.908Z,98605.22
2022-09-22T05:43:38.223Z,98612.13
2022-09-22T05:46:05.702Z,98615.19
2022-09-22T05:48:33.215Z,98613.09
2022-09-22T05:51:00.694Z,98614.47
2022-09-22T05:53:28.392Z,98617.16
2022-09-22T05:55:57.145Z,98622.41
2022-09-22T05:58:24.429Z,98622.28
2022-09-22T06:00:51.663Z,98623.03
2022-09-22T06:03:19.550Z,98620.03
2022-09-22T06:05:46.866Z,98624.72
2022-09-22T06:08:14.058Z,98630.00
2022-09-22T06:10:42.306Z,98627.03
2022-09-22T06:13:12.047Z,98629.75
2022-09-22T06:15:39.559Z,98624.72
2022-09-22T06:18:13.105Z,98625.53
2022-09-22T06:20:43.036Z,98626.72
2022-09-22T06:23:13.273Z,98631.94
2022-09-22T06:25:40.595Z,98632.88
2022-09-22T06:28:17.124Z,98637.78
2022-09-22T06:30:44.614Z,98637.03
2022-09-22T06:33:12.133Z,98642.38
2022-09-22T06:35:43.221Z,98644.72
2022-09-22T06:38:15.183Z,98643.47
2022-09-22T06:40:43.786Z,98641.75
2022-09-22T06:43:22.588Z,98648.63
2022-09-22T06:45:53.343Z,98647.97
2022-09-22T06:48:24.059Z,98644.59
2022-09-22T06:50:54.438Z,98646.22
2022-09-22T06:53:25.327Z,98652.38
2022-09-22T06:55:54.238Z,98650.69
2022-09-22T06:58:22.455Z,98662.81
2022-09-22T07:00:51.163Z,98654.97
2022-09-22T07:03:22.871Z,98660.66
2022-09-22T07:06:00.996Z,98665.53
2022-09-22T07:08:31.642Z,98655.03
2022-09-22T07:11:08.163Z,98657.81
2022-09-22T07:13:42.400Z,98664.72
2022-09-22T07:16:17.704Z,98657.81
2022-09-22T07:18:48.321Z,98655.31
2022-09-22T07:21:23.356Z,98661.81
2022-09-22T07:23:54.355Z,98656.81
2022-09-22T07:26:40.952Z,98662.78
2022-09-22T07:29:13.433Z,98656.31
2022-09-22T07:31:42.055Z,98658.91
2022-09-22T07:34:09.454Z,98665.66
2022-09-22T07:36:40.114Z,98668.53
2022-09-22T07:39:11.394Z,98664.56
2022-09-22T07:41:43.528Z,98672.31
2022-09-22T07:44:33.296Z,98678.56
2022-09-22T07:47:02.084Z,98670.59
2022-09-22T07:49:30.436Z,98675.09
2022-09-22T07:51:58.172Z,98668.09
2022-09-22T07:54:27.111Z,98660.41
2022-09-22T07:57:06.776Z,98655.84
2022-09-22T07:59:36.269Z,98660.28
2022-09-22T08:02:03.687Z,98656.66
2022-09-22T08:04:32.061Z,98662.81
2022-09-22T08:06:59.288Z,98665.34
2022-09-22T08:09:28.352Z,98658.94
2022-09-22T08:11:55.912Z,98671.09
2022-09-22T08:14:24.085Z,98670.66
2022-09-22T08:16:53.628Z,98671.63
2022-09-22T08:19:23.826Z,98675.13
2022-09-22T08:21:54.423Z,98678.75
2022-09-22T08:24:23.462Z,98677.38
2022-09-22T08:26:53.794Z,98679.19
2022-09-22T08:29:22.506Z,98682.75
2022-09-22T08:31:51.393Z,98681.47
2022-09-22T08:34:18.907Z,98681.19
2022-09-22T08:36:48.386Z,98686.03
2022-09-22T08:39:18.308Z,98677.22
2022-09-22T08:42:09.468Z,98688.25
2022-09-22T08:45:04.800Z,98690.19
2022-09-22T08:48:07.370Z,98681.44
2022-09-22T08:51:35.649Z,98684.28
2022-09-22T08:54:04.366Z,98682.34
2022-09-22T08:56:46.678Z,98668.53
2022-09-22T08:59:23.215Z,98671.91
2022-09-22T09:02:36.081Z,98678.97
2022-09-22T09:05:34.345Z,98670.59
2022-09-22T09:08:28.888Z,98672.28
2022-09-22T09:11:25.128Z,98667.84
2022-09-22T09:14:41.555Z,98659.25
2022-09-22T09:17:21.125Z,98663.16
2022-09-22T09:20:15.454Z,98664.25
2022-09-22T09:22:52.843Z,98657.44
2022-09-22T09:25:32.097Z,98662.41
2022-09-22T09:28:06.139Z,98660.75
2022-09-22T09:30:46.986Z,98665.56
2022-09-22T09:33:38.078Z,98659.72
2022-09-22T09:38:55.103Z,98664.84
2022-09-22T09:41:31.382Z,98658.41
2022-09-22T09:44:04.546Z,98659.75
2022-09-22T09:47:03.320Z,98657.09
2022-09-22T09:49:31.306Z,98665.94
2022-09-22T09:52:02.066Z,98658.94
2022-09-22T09:54:32.031Z,98655.47
2022-09-22T09:57:11.243Z,98653.59
2022-09-22T10:00:24.457Z,98662.00
2022-09-22T10:03:15.496Z,98660.41
2022-09-22T10:05:43.596Z,98654.94
2022-09-22T10:08:20.293Z,98654.53
2022-09-22T10:10:48.985Z,98657.94
2022-09-22T10:13:26.414Z,98670.16
2022-09-22T10:16:24.383Z,98667.72
2022-09-22T10:19:03.682Z,98668.03
2022-09-22T10:21:31.120Z,98665.81
2022-09-22T10:24:00.601Z,98659.59
2022-09-22T10:26:32.973Z,98671.91
2022-09-22T10:29:21.187Z,98665.84
2022-09-22T10:32:16.425Z,98669.34
2022-09-22T10:34:51.889Z,98665.97
2022-09-22T10:37:29.664Z,98658.72
2022-09-22T10:40:03.401Z,98661.53
2022-09-22T10:42:37.796Z,98661.16
2022-09-22T10:45:12.937Z,98664.50
2022-09-22T10:51:25.616Z,98653.19
2022-09-22T10:54:19.013Z,98655.16
2022-09-22T10:56:53.436Z,98646.34
2022-09-22T10:59:46.088Z,98642.69
2022-09-22T11:02:48.815Z,98644.22
2022-09-22T11:05:48.703Z,98640.47
2022-09-22T11:08:53.310Z,98653.91
2022-09-22T11:11:55.985Z,98650.78
2022-09-22T11:15:00.179Z,98643.03
2022-09-22T11:17:55.404Z,98646.47
2022-09-22T11:20:34.728Z,98649.63
2022-09-22T11:23:26.639Z,98658.50
2022-09-22T11:26:35.169Z,98650.25
2022-09-22T11:29:54.038Z,98641.66
2022-09-22T11:33:08.584Z,98639.59
2022-09-22T11:36:02.895Z,98626.22
2022-09-22T11:38:59.824Z,98636.53
2022-09-22T11:41:37.311Z,98631.91
2022-09-22T11:44:24.329Z,98628.72
2022-09-22T11:46:54.905Z,98622.31
2022-09-22T11:49:31.434Z,98629.72
2022-09-22T11:52:17.725Z,98629.56
2022-09-22T11:55:23.495Z,98632.97
2022-09-22T11:57:59.677Z,98621.47
2022-09-22T12:00:37.101Z,98629.47
2022-09-22T12:03:17.146Z,98623.88
2022-09-22T12:06:03.876Z,98623.94
2022-09-22T12:08:43.312Z,98627.22
2022-09-22T12:11:14.982Z,98635.53
2022-09-22T12:13:48.439Z,98633.94
2022-09-22T12:16:42.089Z,98643.63
2022-09-22T12:19:25.274Z,98639.09
2022-09-22T12:22:21.868Z,98636.66
2022-09-22T12:24:49.945Z,98626.94
2022-09-22T12:27:23.923Z,98629.88
2022-09-22T12:30:06.933Z,98620.81
2022-09-22T12:32:42.754Z,98618.00
2022-09-22T12:35:31.027Z,98617.28
2022-09-22T12:38:02.667Z,98614.22
2022-09-22T12:40:38.062Z,98608.34
2022-09-22T12:43:06.232Z,98603.78
2022-09-22T12:45:42.358Z,98612.84
2022-09-22T12:48:29.114Z,98600.16
2022-09-22T12:51:34.464Z,98596.38
2022-09-22T12:54:23.558Z,98590.22
2022-09-22T12:56:53.506Z,98587.63
2022-09-22T12:59:35.971Z,98591.63
2022-09-22T13:02:15.969Z,98588.31
2022-09-22T13:04:49.677Z,98585.22
2022-09-22T13:07:49.367Z,98578.69
2022-09-22T13:10:25.203Z,98582.81
2022-09-22T13:13:24.201Z,98583.03
2022-09-22T13:15:57.442Z,98583.78
2022-09-22T13:18:42.408Z,98588.66
2022-09-22T13:21:12.738Z,98582.72
2022-09-22T13:23:51.890Z,98578.66
2022-09-22T13:26:27.644Z,98583.19
2022-09-22T13:29:19.851Z,98585.41
2022-09-22T13:31:57.943Z,98586.56
2022-09-22T13:34:35.698Z,98577.38
2022-09-22T13:37:18.014Z,98573.41
2022-09-22T13:39:50.084Z,98577.19
2022-09-22T13:42:31.460Z,98568.50
2022-09-22T13:45:24.091Z,98575.97
2022-09-22T13:47:57.346Z,98587.34
2022-09-22T13:50:26.145Z,98577.03
2022-09-22T13:52:54.452Z,98574.31
2022-09-22T13:55:32.236Z,98575.75
2022-09-22T13:58:03.340Z,98569.78
2022-09-22T14:01:15.281Z,98562.59
2022-09-22T14:03:44.110Z,98557.63
2022-09-22T14:06:24.666Z,98559.47
2022-09-22T14:08:53.509Z,98556.25
2022-09-22T14:11:33.586Z,98559.97
2022-09-22T14:14:02.743Z,98557.53
2022-09-22T14:16:52.098Z,98559.34
2022-09-22T14:19:34.213Z,98561.75
2022-09-22T14:22:15.157Z,98559.69
2022-09-22T14:24:52.316Z,98557.88
2022-09-22T14:27:36.458Z,98553.41
2022-09-22T14:30:05.406Z,98562.88
2022-09-22T14:32:48.214Z,98555.09
2022-09-22T14:35:30.330Z,98549.28
2022-09-22T14:38:09.605Z,98556.06
2022-09-22T14:40:54.200Z,98564.09
2022-09-22T14:43:26.330Z,98556.69
2022-09-22T14:46:08.688Z,98557.78
2022-09-22T14:48:37.003Z,98564.00
2022-09-22T14:51:20.463Z,98554.81
2022-09-22T14:54:01.622Z,98545.47
2022-09-22T14:56:34.281Z,98550.13
2022-09-22T14:59:27.624Z,98558.06
2022-09-22T15:02:15.489Z,98548.19
2022-09-22T15:04:52.951Z,98546.13
2022-09-22T15:07:34.608Z,98545.16
2022-09-22T15:10:17.772Z,98555.34
2022-09-22T15:12:49.373Z,98553.22
2022-09-22T15:15:22.921Z,98551.56
2022-09-22T15:18:16.762Z,98544.06
2022-09-22T15:20:52.853Z,98545.84
2022-09-22T15:23:41.335Z,98544.88
2022-09-22T15:26:25.588Z,98543.75
2022-09-22T15:28:56.226Z,98547.78
2022-09-22T15:31:27.031Z,98546.56
2022-09-22T15:34:02.850Z,98532.56
2022-09-22T15:36:33.150Z,98541.97
2022-09-22T15:39:19.462Z,98543.47
2022-09-22T15:41:49.863Z,98544.25
2022-09-22T15:44:17.761Z,98548.88
2022-09-22T15:46:51.466Z,98542.53
2022-09-22T15:49:26.256Z,98543.25
2022-09-22T15:51:56.703Z,98548.25
2022-09-22T15:54:26.342Z,98545.53
2022-09-22T15:56:56.555Z,98546.91
2022-09-22T15:59:33.270Z,98548.66
2022-09-22T16:02:02.769Z,98552.09
2022-09-22T16:04:31.602Z,98551.25
2022-09-22T16:07:04.867Z,98551.34
2022-09-22T16:09:38.722Z,98555.34
2022-09-22T16:12:11.131Z,98554.50
2022-09-22T16:14:41.056Z,98562.97
2022-09-22T16:17:08.566Z,98564.75
2022-09-22T16:19:35.897Z,98570.41
2022-09-22T16:22:03.428Z,98558.53
2022-09-22T16:24:31.047Z,98562.59
2022-09-22T16:26:58.298Z,98571.84
2022-09-22T16:29:25.857Z,98559.59
2022-09-22T16:31:53.128Z,98556.41
2022-09-22T16:34:20.395Z,98564.28
2022-09-22T16:36:47.774Z,98564.78
2022-09-22T16:39:15.011Z,98565.00
2022-09-22T16:41:46.838Z,98561.09
2022-09-22T16:44:15.713Z,98559.19
2022-09-22T16:46:43.133Z,98569.34
2022-09-22T16:49:15.816Z,98556.91
2022-09-22T16:51:48.908Z,98562.88
2022-09-22T16:54:18.834Z,98557.59
2022-09-22T16:56:49.813Z,98562.88
2022-09-22T16:59:19.985Z,98555.09
2022-09-22T17:01:48.961Z,98560.72
2022-09-22T17:04:19.150Z,98561.19
2022-09-22T17:06:47.472Z,98558.44
2022-09-22T17:09:16.911Z,98564.41
2022-09-22T17:11:46.872Z,98566.22
2022-09-22T17:14:23.189Z,98560.41
2022-09-22T17:16:54.276Z,98561.00
2022-09-22T17:19:26.465Z,98570.28
2022-09-22T17:21:56.334Z,98570.66
2022-09-22T17:24:25.830Z,98576.16
2022-09-22T17:26:57.171Z,98570.38
2022-09-22T17:29:32.730Z,98575.03
2022-09-22T17:32:05.873Z,98573.34
2022-09-22T17:34:35.438Z,98569.16
2022-09-22T17:37:04.888Z,98572.88
2022-09-22T17:39:32.474Z,98577.50
2022-09-22T17:42:00.306Z,98574.28
2022-09-22T17:44:31.060Z,98580.81
2022-09-22T17:47:16.580Z,98576.03
2022-09-22T17:50:02.740Z,98583.63
2022-09-22T17:52:30.122Z,98580.47
2022-09-22T17:55:07.671Z,98585.97
2022-09-22T17:57:45.475Z,98581.16
2022-09-22T18:00:21.269Z,98576.81
2022-09-22T18:02:52.869Z,98581.53
2022-09-22T18:05:26.886Z,98584.63
2022-09-22T18:07:58.594Z,98584.81
2022-09-22T18:10:32.577Z,98583.16
2022-09-22T18:13:02.115Z,98586.13
2022-09-22T18:15:30.723Z,98585.47
2022-09-22T18:17:58.426Z,98590.34
2022-09-22T18:20:27.714Z,98592.28
2022-09-22T18:22:56.144Z,98588.22
2022-09-22T18:25:25.810Z,98586.63
2022-09-22T18:27:54.707Z,98595.25
2022-09-22T18:30:22.399Z,98591.09
2022-09-22T18:32:49.820Z,98590.53
2022-09-22T18:35:17.469Z,98601.25
2022-09-22T18:37:44.944Z,98599.88
2022-09-22T18:40:12.738Z,98604.72
2022-09-22T18:42:41.553Z,98610.28
2022-09-22T18:45:11.211Z,98613.84
2022-09-22T18:47:40.992Z,98607.16
2022-09-22T18:50:09.703Z,98606.38
2022-09-22T18:52:42.631Z,98605.66
2022-09-22T18:55:18.873Z,98605.66
2022-09-22T18:57:47.904Z,98605.66
2022-09-22T19:00:16.471Z,98607.56
2022-09-22T19:02:43.790Z,98600.66
2022-09-22T19:05:11.417Z,98600.75
2022-09-22T19:07:42.415Z,98599.09
2022-09-22T19:10:18.944Z,98602.72
2022-09-22T19:12:46.555Z,98600.22
2022-09-22T19:15:18.973Z,98606.28
2022-09-22T19:17:49.689Z,98600.88
2022-09-22T19:20:23.445Z,98595.69
2022-09-22T19:22:52.594Z,98595.53
2022-09-22T19:25:22.259Z,98595.63
2022-09-22T19:27:53.614Z,98597.59
2022-09-22T19:30:25.726Z,98592.69
2022-09-22T19:32:56.101Z,98598.44
2022-09-22T19:35:23.691Z,98602.31
2022-09-22T19:37:52.112Z,98597.28
2022-09-22T19:40:24.546Z,98593.09
2022-09-22T19:42:53.790Z,98591.38
2022-09-22T19:45:23.964Z,98602.91
2022-09-22T19:47:53.085Z,98594.53
2022-09-22T19:50:20.505Z,98596.41
2022-09-22T19:52:47.924Z,98598.28
2022-09-22T19:55:18.925Z,98594.84
2022-09-22T19:57:48.888Z,98604.59
2022-09-22T20:00:17.737Z,98606.25
2022-09-22T20:02:45.914Z,98596.91
2022-09-22T20:05:21.918Z,98601.53
2022-09-22T20:07:50.037Z,98598.69
2022-09-22T20:10:22.661Z,98602.25
2022-09-22T20:12:51.942Z,98595.56
2022-09-22T20:15:20.340Z,98600.91
2022-09-22T20:17:47.739Z,98600.34
2022-09-22T20:20:25.316Z,98599.81
2022-09-22T20:23:02.569Z,98594.66
2022-09-22T20:25:32.588Z,98591.31
2022-09-22T20:28:00.458Z,98588.19
2022-09-22T20:30:27.866Z,98593.50
2022-09-22T20:32:55.119Z,98595.28
2022-09-22T20:35:22.789Z,98591.09
2022-09-22T20:37:51.661Z,98591.91
2022-09-22T20:40:21.605Z,98590.03
2022-09-22T20:42:51.305Z,98593.41
2022-09-22T20:45:20.986Z,98598.66
2022-09-22T20:47:48.407Z,98597.59
2022-09-22T20:50:15.868Z,98596.09
2022-09-22T20:52:43.077Z,98593.41
2022-09-22T20:55:13.261Z,98600.31
2022-09-22T20:57:41.296Z,98602.84
2022-09-22T21:00:09.958Z,98592.47
2022-09-22T21:02:37.431Z,98596.09
2022-09-22T21:05:05.281Z,98600.31
2022-09-22T21:07:33.209Z,98595.28
2022-09-22T21:10:19.055Z,98596.03
2022-09-22T21:12:46.496Z,98589.31
2022-09-22T21:15:14.571Z,98591.19
2022-09-22T21:17:44.184Z,98585.19
2022-09-22T21:20:11.668Z,98587.06
2022-09-22T21:22:38.956Z,98586.13
2022-09-22T21:25:07.460Z,98585.97
2022-09-22T21:27:35.884Z,98580.72
2022-09-22T21:30:03.207Z,98581.81
2022-09-22T21:32:31.294Z,98587.91
2022-09-22T21:34:58.647Z,98584.34
2022-09-22T21:37:27.097Z,98583.34
2022-09-22T21:39:54.250Z,98585.00
2022-09-22T21:42:21.755Z,98581.47
2022-09-22T21:44:48.989Z,98578.84
2022-09-22T21:47:16.175Z,98576.22
2022-09-22T21:49:43.633Z,98576.50
2022-09-22T21:52:10.807Z,98576.59
2022-09-22T21:54:37.962Z,98579.50
2022-09-22T21:57:05.619Z,98583.69
2022-09-22T21:59:32.837Z,98574.91
2022-09-22T22:02:01.612Z,98578.56
2022-09-22T22:04:30.486Z,98566.66
2022-09-22T22:06:57.640Z,98571.94
2022-09-22T22:09:25.801Z,98574.78
2022-09-22T22:11:59.430Z,98571.81
2022-09-22T22:14:32.109Z,98574.44
2022-09-22T22:17:02.206Z,98577.16
2022-09-22T22:19:30.008Z,98574.91
2022-09-22T22:21:57.215Z,98582.59
2022-09-22T22:24:29.014Z,98572.75
2022-09-22T22:27:01.448Z,98570.84
2022-09-22T22:29:32.008Z,98573.56
2022-09-22T22:31:59.391Z,98566.66
2022-09-22T22:34:28.032Z,98569.16
2022-09-22T22:36:58.281Z,98570.00
2022-09-22T22:39:25.617Z,98566.66
2022-09-22T22:41:55.132Z,98564.09
2022-09-22T22:44:23.097Z,98559.19
2022-09-22T22:46:50.910Z,98563.47
2022-09-22T22:49:18.432Z,98559.19
2022-09-22T22:51:45.992Z,98558.34
2022-09-22T22:54:14.531Z,98551.25
2022-09-22T22:56:43.720Z,98550.50
2022-09-22T22:59:12.382Z,98556.84
2022-09-22T23:01:40.642Z,98550.06
2022-09-22T23:04:11.259Z,98551.94
2022-09-22T23:06:44.215Z,98545.66
2022-09-22T23:09:15.576Z,98544.09
2022-09-22T23:11:45.680Z,98543.88
2022-09-22T23:14:15.993Z,98548.16
2022-09-22T23:16:47.112Z,98549.84
2022-09-22T23:19:17.895Z,98544.44
2022-09-22T23:21:46.516Z,98545.28
2022-09-22T23:24:17.168Z,98546.31
2022-09-22T23:26:45.901Z,98535.03
2022-09-22T23:29:13.639Z,98537.72
2022-09-22T23:31:42.465Z,98545.38
2022-09-22T23:34:09.672Z,98532.41
2022-09-22T23:36:37.148Z,98530.81
2022-09-22T23:39:04.875Z,98528.88
2022-09-22T23:41:34.993Z,98527.19
2022-09-22T23:44:03.749Z,98521.84
2022-09-22T23:46:31.920Z,98519.97
2022-09-22T23:49:00.344Z,98525.84
2022-09-22T23:51:28.556Z,98521.66
2022-09-22T23:53:56.446Z,98517.34
2022-09-22T23:56:24.834Z,98522.69
2022-09-22T23:58:52.973Z,98523.53
